Portland, Kentucky
Current Conditions -  °F | °C
As of 8:53 PM on Sunday 25 Jan 2015 (Local Time) from KLUK Reporting Station
Light Rain Light Rain  
Wind Chill: 33°   Ceiling: 2400
Heat Index: 38°   Visibility: 4mi
Dew Point: 38°   Wind: 6mph
Humidity: 100%   Direction: 40°NE
Pressure: 29.71"   Gusts: NA
Location:  38.8043°N, 84.4185°W
Report Text: KLUK 260153Z 04005KT 4SM -RA BR FEW007 OVC024 03/03 A2971 RMK AO2 SLP065 P0007 T00330033
Loading
Personal Weather Stations






























Interactive Weather Map New forecast layout! Learn more

10-Day Weather Forecast

Advertisements
Track Severe Weather on mobile